Terminal Aerodrome Forecast
Issued by NWS

Current Version | Previous Version | Text Only | Print | Product List | Glossary On
Versions: 1 2 3 4 5 6 7 8 9 10 11 12 13 14
000
FTUS42 KFFC 252329
TAFPDK
TAF
KPDK 252329Z 2600/2624 14003KT P6SM SCT250
     FM261000 00000KT P6SM SCT015
     FM261400 13003KT P6SM FEW035
     FM261700 16006KT P6SM VCSH SCT045 PROB30 2620/2624 6SM -TSRA
      OVC035CB=

USA.gov is the U.S. government's official web portal to all federal, state and local government web resources and services.